Time;durP1;ratioP1;P1;durP2;ratioP2;P2;SDS_P1;SDS_P2;PMS_P1;PMS_P2;Temp;Humidity;BMP_temperature;BMP_pressure;BME280_temperature;BME280_humidity;BME280_pressure;Samples;Min_cycle;Max_cycle;Signal;HPM_P1;HPM_P2
2023/01/05 00:01:09;;;;;;;32.25;5.38;;;9.60;99.90;;;;;;5058618;28;20132;-63
2023/01/05 00:03:36;;;;;;;33.67;4.72;;;9.50;99.90;;;;;;5040534;28;20521;-63
2023/01/05 00:06:05;;;;;;;22.83;4.70;;;9.50;99.90;;;;;;5057011;28;20095;-63
2023/01/05 00:08:30;;;;;;;31.95;4.40;;;9.60;99.90;;;;;;5056616;28;20189;-63
2023/01/05 00:24:41;;;;;;;26.40;4.13;;;9.50;99.90;;;;;;5054967;28;20051;-63
2023/01/05 00:27:07;;;;;;;20.80;3.92;;;9.50;99.90;;;;;;5054178;28;20140;-63
2023/01/05 00:29:33;;;;;;;22.95;4.38;;;9.50;99.90;;;;;;5055344;28;20089;-62
2023/01/05 00:31:58;;;;;;;31.50;4.22;;;9.50;99.90;;;;;;5057318;28;20048;-62
2023/01/05 00:34:24;;;;;;;26.17;5.03;;;9.50;99.90;;;;;;5056283;28;20084;-62
2023/01/05 00:36:50;;;;;;;28.90;4.90;;;9.50;99.90;;;;;;5055773;28;20107;-62
2023/01/05 00:39:16;;;;;;;26.35;5.13;;;9.50;99.90;;;;;;5038928;28;20048;-63
2023/01/05 00:41:42;;;;;;;25.48;4.20;;;9.40;99.90;;;;;;5055942;28;20045;-63
2023/01/05 00:44:07;;;;;;;25.20;4.15;;;9.50;99.90;;;;;;5054881;28;20045;-64
2023/01/05 00:46:33;;;;;;;27.02;3.92;;;9.50;99.90;;;;;;5046403;28;20044;-62
2023/01/05 00:48:59;;;;;;;27.13;4.80;;;9.40;99.90;;;;;;5053969;28;20050;-63
2023/01/05 00:51:25;;;;;;;29.42;4.70;;;9.40;99.90;;;;;;5053858;28;20041;-63
2023/01/05 00:53:50;;;;;;;27.13;4.70;;;9.40;99.90;;;;;;5056982;28;20151;-63
2023/01/05 00:56:16;;;;;;;27.83;5.10;;;9.40;99.90;;;;;;5054920;28;20033;-63
2023/01/05 00:58:42;;;;;;;24.77;4.20;;;9.40;99.90;;;;;;5050934;28;20118;-63
2023/01/05 01:01:12;;;;;;;38.92;6.00;;;9.40;99.90;;;;;;5052863;28;20033;-63
2023/01/05 01:03:38;;;;;;;31.35;5.03;;;9.40;99.90;;;;;;5055355;28;20037;-63
2023/01/05 01:06:05;;;;;;;35.13;5.13;;;9.40;99.90;;;;;;5054799;28;20106;-63
2023/01/05 01:08:30;;;;;;;29.63;4.97;;;9.40;99.90;;;;;;5055691;28;20056;-63
2023/01/05 01:10:56;;;;;;;41.50;6.00;;;9.40;99.90;;;;;;5037502;28;20106;-63
2023/01/05 01:13:23;;;;;;;27.23;5.00;;;9.40;99.90;;;;;;5056324;28;20041;-63
2023/01/05 01:15:49;;;;;;;24.80;4.78;;;9.40;99.90;;;;;;5056103;28;20049;-63
2023/01/05 01:18:15;;;;;;;30.25;4.70;;;9.40;99.90;;;;;;5056703;28;20131;-63
2023/01/05 01:20:41;;;;;;;32.13;4.80;;;9.40;99.90;;;;;;5054274;28;20106;-63
2023/01/05 01:23:07;;;;;;;24.45;4.80;;;9.40;99.90;;;;;;5055787;28;21053;-63
2023/01/05 01:25:33;;;;;;;31.38;4.95;;;9.40;99.90;;;;;;5052491;28;20398;-63
2023/01/05 01:27:59;;;;;;;26.50;4.47;;;9.50;99.90;;;;;;5054107;28;20033;-63
2023/01/05 01:30:24;;;;;;;26.52;4.32;;;9.50;99.90;;;;;;5028564;28;20074;-63
2023/01/05 01:32:50;;;;;;;22.13;4.38;;;9.50;99.90;;;;;;5053974;28;20052;-63
2023/01/05 01:35:16;;;;;;;24.73;4.38;;;9.50;99.90;;;;;;5054677;28;20216;-63
2023/01/05 01:37:42;;;;;;;30.67;5.10;;;9.50;99.90;;;;;;5037936;28;20041;-63
2023/01/05 01:40:08;;;;;;;24.42;4.40;;;9.50;99.90;;;;;;5053274;28;20542;-63
2023/01/05 01:42:34;;;;;;;27.02;4.65;;;9.40;99.90;;;;;;5036852;28;20056;-63
2023/01/05 01:45:10;;;;;;;25.02;4.07;;;9.50;99.90;;;;;;5039720;28;20048;-63
2023/01/05 01:47:54;;;;;;;28.25;4.63;;;9.50;99.90;;;;;;5039103;28;20080;-63
2023/01/05 01:50:33;;;;;;;23.70;3.80;;;9.50;99.90;;;;;;5054064;28;20049;-63
2023/01/05 01:53:05;;;;;;;19.70;4.10;;;9.50;99.90;;;;;;5055662;28;20128;-63
2023/01/05 01:55:32;;;;;;;20.75;3.75;;;9.50;99.90;;;;;;5057832;28;20441;-63
2023/01/05 01:58:00;;;;;;;30.80;4.88;;;9.60;99.90;;;;;;5056077;28;20044;-64
2023/01/05 02:00:26;;;;;;;26.90;4.13;;;9.50;99.90;;;;;;5062046;28;20048;-63
2023/01/05 02:02:54;;;;;;;34.80;4.82;;;9.50;99.90;;;;;;5062860;28;20040;-63
2023/01/05 02:05:24;;;;;;;32.60;5.95;;;9.50;99.90;;;;;;5054925;28;20066;-63
2023/01/05 02:07:50;;;;;;;31.48;4.30;;;9.50;99.90;;;;;;5056660;28;20074;-63
2023/01/05 02:10:22;;;;;;;23.95;5.00;;;9.50;99.90;;;;;;5051246;28;20071;-63
2023/01/05 02:13:12;;;;;;;31.10;4.88;;;9.50;99.90;;;;;;5054947;28;20127;-63
2023/01/05 02:15:37;;;;;;;31.38;4.65;;;9.50;99.90;;;;;;5052789;28;20043;-63
2023/01/05 02:18:42;;;;;;;28.98;4.70;;;9.50;99.90;;;;;;5053813;28;20041;-63
2023/01/05 02:21:51;;;;;;;24.48;4.63;;;9.50;99.90;;;;;;5048828;28;20053;-63
2023/01/05 02:24:42;;;;;;;28.25;5.03;;;9.50;99.90;;;;;;5015468;28;20609;-63
2023/01/05 02:27:39;;;;;;;24.05;3.72;;;9.50;99.90;;;;;;5053467;28;20033;-63
2023/01/05 02:30:43;;;;;;;24.48;4.63;;;9.50;99.90;;;;;;5061022;28;20518;-63
2023/01/05 02:33:14;;;;;;;43.03;5.65;;;9.50;99.90;;;;;;5055478;28;20123;-64
2023/01/05 02:35:54;;;;;;;26.02;4.75;;;9.50;99.90;;;;;;5035564;28;20056;-63
2023/01/05 02:38:45;;;;;;;29.63;5.07;;;9.50;99.90;;;;;;5038684;28;21001;-63
2023/01/05 02:41:31;;;;;;;24.35;4.10;;;9.50;99.90;;;;;;5053845;28;20390;-63
2023/01/05 02:43:59;;;;;;;24.42;4.00;;;9.50;99.90;;;;;;5053092;28;20074;-63
2023/01/05 02:46:24;;;;;;;27.35;4.65;;;9.50;99.90;;;;;;5052519;28;20048;-63
2023/01/05 02:48:53;;;;;;;32.38;4.50;;;9.50;99.90;;;;;;5051709;28;20045;-64
2023/01/05 02:51:25;;;;;;;21.45;4.43;;;9.50;99.90;;;;;;5056994;28;20044;-64
2023/01/05 02:54:15;;;;;;;35.00;5.35;;;9.50;99.90;;;;;;5061209;28;20048;-63
2023/01/05 02:56:48;;;;;;;25.27;4.82;;;9.50;99.90;;;;;;5057979;28;20048;-63
2023/01/05 02:59:25;;;;;;;31.80;4.80;;;9.50;99.90;;;;;;5053907;28;20036;-63
2023/01/05 03:01:57;;;;;;;23.88;4.07;;;9.50;99.90;;;;;;5054935;28;20041;-63
2023/01/05 03:04:40;;;;;;;28.02;4.50;;;9.50;99.90;;;;;;5052648;28;20045;-63
2023/01/05 03:07:11;;;;;;;25.65;4.93;;;9.50;99.90;;;;;;5032275;28;20086;-63
2023/01/05 03:09:39;;;;;;;27.38;5.40;;;9.50;99.90;;;;;;5053655;28;20048;-63
2023/01/05 03:15:32;;;;;;;32.75;4.68;;;9.50;99.90;;;;;;5051234;28;20063;-63
2023/01/05 03:18:08;;;;;;;25.30;4.07;;;9.50;99.90;;;;;;5053279;28;20044;-63
2023/01/05 03:20:36;;;;;;;23.92;4.15;;;9.50;99.90;;;;;;5052251;28;20500;-63
2023/01/05 03:37:58;;;;;;;29.38;4.53;;;9.40;99.90;;;;;;5051596;28;20045;-63
2023/01/05 03:40:30;;;;;;;23.58;4.18;;;9.50;99.90;;;;;;5050268;28;20052;-63
2023/01/05 03:42:57;;;;;;;31.98;4.93;;;9.50;99.90;;;;;;5054567;28;20043;-63
2023/01/05 03:45:27;;;;;;;24.02;4.13;;;9.50;99.90;;;;;;5051896;28;20040;-63
2023/01/05 03:47:54;;;;;;;32.58;5.22;;;9.50;99.90;;;;;;5060919;28;20041;-63
2023/01/05 03:50:20;;;;;;;30.63;4.45;;;9.50;99.90;;;;;;5052845;28;20127;-63
2023/01/05 03:52:46;;;;;;;24.90;4.82;;;9.50;99.90;;;;;;5052828;28;20582;-64
2023/01/05 03:55:12;;;;;;;30.25;4.53;;;9.50;99.90;;;;;;5052399;28;20059;-63
2023/01/05 03:57:37;;;;;;;24.25;4.45;;;9.50;99.90;;;;;;5048257;28;20056;-63
2023/01/05 04:00:04;;;;;;;23.55;3.88;;;9.50;99.90;;;;;;5057243;28;20098;-63
2023/01/05 04:02:30;;;;;;;27.45;4.60;;;9.50;99.90;;;;;;5030136;28;20757;-63
2023/01/05 04:04:56;;;;;;;26.65;4.63;;;9.50;99.90;;;;;;5054819;28;20154;-63
2023/01/05 04:07:21;;;;;;;30.23;5.30;;;9.50;99.90;;;;;;5061003;28;20094;-63
2023/01/05 04:09:47;;;;;;;29.52;4.80;;;9.50;99.90;;;;;;5056272;28;20041;-63
2023/01/05 04:12:13;;;;;;;27.08;4.43;;;9.50;99.90;;;;;;5057317;28;20441;-63
2023/01/05 04:14:39;;;;;;;30.77;4.65;;;9.50;99.90;;;;;;5054910;28;20041;-63
2023/01/05 04:17:04;;;;;;;33.30;4.88;;;9.50;99.90;;;;;;5057726;28;20033;-63
2023/01/05 04:19:30;;;;;;;25.35;4.20;;;9.50;99.90;;;;;;5057330;28;20036;-63
2023/01/05 04:21:56;;;;;;;28.55;4.47;;;9.50;99.90;;;;;;5054970;28;21510;-63
2023/01/05 04:24:22;;;;;;;30.58;4.90;;;9.50;99.90;;;;;;5056936;28;20036;-63
2023/01/05 04:26:48;;;;;;;31.40;4.60;;;9.50;99.90;;;;;;5054538;28;20067;-63
2023/01/05 04:29:13;;;;;;;29.90;5.07;;;9.50;99.90;;;;;;5058456;28;20048;-63
2023/01/05 04:31:39;;;;;;;33.38;4.85;;;9.50;99.90;;;;;;5057403;28;20060;-63
2023/01/05 04:34:05;;;;;;;27.85;5.00;;;9.50;99.90;;;;;;5053900;28;20095;-63
2023/01/05 04:36:31;;;;;;;24.23;4.72;;;9.50;99.90;;;;;;5057836;28;20482;-63
2023/01/05 04:38:57;;;;;;;26.60;4.78;;;9.50;99.90;;;;;;5058312;28;20035;-63
2023/01/05 04:41:23;;;;;;;28.10;5.30;;;9.50;99.90;;;;;;5053741;28;20040;-63
2023/01/05 04:43:49;;;;;;;21.55;4.50;;;9.50;99.90;;;;;;5047910;28;20045;-63
2023/01/05 04:46:14;;;;;;;27.42;4.90;;;9.50;99.90;;;;;;5055768;28;20137;-63
2023/01/05 04:48:40;;;;;;;27.58;4.88;;;9.50;99.90;;;;;;5058776;28;20048;-63
2023/01/05 04:51:06;;;;;;;30.58;4.43;;;9.50;99.90;;;;;;5058245;28;20036;-63
2023/01/05 04:53:32;;;;;;;31.35;5.00;;;9.50;99.90;;;;;;5059576;28;20053;-63
2023/01/05 04:55:58;;;;;;;30.63;4.55;;;9.50;99.90;;;;;;5053896;28;20044;-63
2023/01/05 04:58:24;;;;;;;31.65;4.95;;;9.50;99.90;;;;;;5055709;28;20063;-63
2023/01/05 05:00:49;;;;;;;29.23;4.93;;;9.50;99.90;;;;;;5055234;28;20053;-63
2023/01/05 05:03:15;;;;;;;30.05;4.68;;;9.50;99.90;;;;;;5054838;28;20047;-63
2023/01/05 05:05:41;;;;;;;27.52;4.55;;;9.50;99.90;;;;;;5056241;28;20478;-63
2023/01/05 05:08:07;;;;;;;30.90;5.50;;;9.50;99.90;;;;;;5057725;28;20037;-63
2023/01/05 05:10:33;;;;;;;20.77;4.03;;;9.50;99.90;;;;;;5055093;28;20036;-64
2023/01/05 05:12:58;;;;;;;32.78;5.07;;;9.50;99.90;;;;;;5038886;28;20040;-63
2023/01/05 05:15:24;;;;;;;31.35;5.10;;;9.50;99.90;;;;;;5052365;28;20482;-63
2023/01/05 05:17:50;;;;;;;28.52;5.15;;;9.50;99.90;;;;;;5054583;28;20055;-63
2023/01/05 05:20:16;;;;;;;21.20;4.05;;;9.50;99.90;;;;;;5053757;28;20395;-63
2023/01/05 05:22:42;;;;;;;25.17;4.57;;;9.50;99.90;;;;;;5057406;28;20194;-63
2023/01/05 05:25:08;;;;;;;27.20;5.15;;;9.50;99.90;;;;;;5053452;28;20133;-63
2023/01/05 05:27:34;;;;;;;26.27;4.50;;;9.50;99.90;;;;;;5060162;28;20082;-63
2023/01/05 05:29:59;;;;;;;22.40;4.30;;;9.50;99.90;;;;;;5056970;28;20076;-63
2023/01/05 05:32:25;;;;;;;25.05;4.60;;;9.50;99.90;;;;;;5055175;28;20045;-63
2023/01/05 05:34:51;;;;;;;23.05;4.22;;;9.50;99.90;;;;;;5054547;28;20402;-63
2023/01/05 05:37:17;;;;;;;23.63;4.60;;;9.50;99.90;;;;;;5057143;28;20072;-63
2023/01/05 05:39:42;;;;;;;31.00;4.70;;;9.50;99.90;;;;;;5054767;28;20051;-63
2023/01/05 05:42:08;;;;;;;31.30;4.68;;;9.50;99.90;;;;;;5055747;28;20045;-63
2023/01/05 05:44:34;;;;;;;28.40;5.75;;;9.50;99.90;;;;;;5036656;28;20095;-63
2023/01/05 05:47:00;;;;;;;24.98;5.07;;;9.50;99.90;;;;;;5039104;28;20419;-63
2023/01/05 05:49:25;;;;;;;33.10;5.93;;;9.50;99.90;;;;;;5038057;28;20057;-63
2023/01/05 05:51:51;;;;;;;30.83;5.03;;;9.50;99.90;;;;;;5054482;28;20045;-63
2023/01/05 05:54:17;;;;;;;28.40;5.15;;;9.50;99.90;;;;;;5058563;28;20041;-63
2023/01/05 05:56:43;;;;;;;31.10;4.82;;;9.50;99.90;;;;;;5052132;28;20058;-63
2023/01/05 05:59:08;;;;;;;26.63;5.22;;;9.50;99.90;;;;;;5054854;28;20087;-63
2023/01/05 06:01:34;;;;;;;35.03;6.03;;;9.50;99.90;;;;;;5055133;28;20048;-63
2023/01/05 06:04:00;;;;;;;25.55;4.85;;;9.50;99.90;;;;;;5055070;28;20045;-63
2023/01/05 06:06:26;;;;;;;26.08;4.88;;;9.50;99.90;;;;;;5054045;28;20101;-63
2023/01/05 06:08:51;;;;;;;26.80;5.50;;;9.50;99.90;;;;;;5056871;28;20051;-63
2023/01/05 06:11:17;;;;;;;27.40;5.30;;;9.50;99.90;;;;;;5052395;28;20080;-63
2023/01/05 06:13:43;;;;;;;26.25;5.05;;;9.50;99.90;;;;;;5057155;28;20046;-63
2023/01/05 06:16:09;;;;;;;25.30;4.47;;;9.50;99.90;;;;;;5033544;28;20490;-63
2023/01/05 06:18:35;;;;;;;24.02;4.82;;;9.50;99.90;;;;;;5054265;28;20479;-63
2023/01/05 06:21:01;;;;;;;26.20;4.32;;;9.50;99.90;;;;;;5054096;28;20055;-63
2023/01/05 06:23:26;;;;;;;26.83;5.10;;;9.50;99.90;;;;;;5036195;28;20037;-63
2023/01/05 06:25:52;;;;;;;30.48;5.28;;;9.50;99.90;;;;;;5050558;28;20071;-63
2023/01/05 06:28:18;;;;;;;22.80;4.75;;;9.40;99.90;;;;;;5052309;28;20040;-63
2023/01/05 06:30:44;;;;;;;26.25;4.35;;;9.40;99.90;;;;;;5054910;28;20482;-63
2023/01/05 06:33:13;;;;;;;31.40;5.05;;;9.40;99.90;;;;;;5052532;28;20055;-63
2023/01/05 06:35:39;;;;;;;27.75;5.13;;;9.40;99.90;;;;;;5053909;28;20388;-63
2023/01/05 06:38:04;;;;;;;31.30;5.03;;;9.40;99.90;;;;;;5051626;28;20131;-63
2023/01/05 06:40:30;;;;;;;31.20;4.53;;;9.30;99.90;;;;;;5051996;28;20101;-63
2023/01/05 06:42:57;;;;;;;36.20;5.30;;;9.30;99.90;;;;;;5055723;28;20046;-62
2023/01/05 06:45:23;;;;;;;28.40;4.78;;;9.30;99.90;;;;;;5054142;28;20099;-63
2023/01/05 06:47:48;;;;;;;31.05;5.93;;;9.30;99.90;;;;;;5056453;28;20052;-63
2023/01/05 06:50:14;;;;;;;41.05;5.60;;;9.30;99.90;;;;;;5053598;28;20376;-63
2023/01/05 06:52:40;;;;;;;30.08;4.32;;;9.30;99.90;;;;;;5067590;28;20037;-63
2023/01/05 06:55:08;;;;;;;32.50;5.00;;;9.30;99.90;;;;;;5051679;28;21927;-63
2023/01/05 06:57:35;;;;;;;33.00;5.85;;;9.30;99.90;;;;;;5052752;28;20142;-63
2023/01/05 07:00:05;;;;;;;30.77;5.65;;;9.30;99.90;;;;;;5061459;28;20083;-63
2023/01/05 07:02:31;;;;;;;27.00;4.95;;;9.30;99.90;;;;;;5054604;28;20037;-63
2023/01/05 07:04:57;;;;;;;33.88;5.35;;;9.30;99.90;;;;;;5053748;28;20083;-63
2023/01/05 07:07:22;;;;;;;30.58;6.30;;;9.30;99.90;;;;;;5050788;28;20511;-63
2023/01/05 07:09:48;;;;;;;28.38;4.63;;;9.30;99.90;;;;;;5053318;28;20059;-63
2023/01/05 07:12:15;;;;;;;34.67;5.03;;;9.30;99.90;;;;;;5055785;28;20418;-63
2023/01/05 07:14:41;;;;;;;29.30;4.32;;;9.30;99.90;;;;;;5049377;28;20083;-63
2023/01/05 07:17:07;;;;;;;25.30;4.20;;;9.30;99.90;;;;;;5053089;28;20056;-63
2023/01/05 07:19:33;;;;;;;27.60;4.25;;;9.30;99.90;;;;;;5035183;28;20044;-63
2023/01/05 07:21:59;;;;;;;29.80;5.38;;;9.20;99.90;;;;;;5055937;28;20063;-63
2023/01/05 07:24:25;;;;;;;24.65;4.55;;;9.20;99.90;;;;;;5054320;28;20075;-63
2023/01/05 07:26:50;;;;;;;28.63;5.10;;;9.30;99.90;;;;;;5055512;28;20072;-63
2023/01/05 07:29:16;;;;;;;27.73;5.05;;;9.30;99.90;;;;;;5050517;28;20120;-63
2023/01/05 07:31:42;;;;;;;37.35;4.95;;;9.20;99.90;;;;;;5058705;28;20045;-63
2023/01/05 07:34:09;;;;;;;30.98;4.88;;;9.20;99.90;;;;;;5059093;28;20061;-63
2023/01/05 07:36:35;;;;;;;37.28;5.70;;;9.20;99.90;;;;;;5058422;28;20761;-63
2023/01/05 07:39:01;;;;;;;31.30;5.47;;;9.20;99.90;;;;;;5047439;28;20037;-63
2023/01/05 07:41:26;;;;;;;25.98;5.10;;;9.20;99.90;;;;;;5057414;28;20410;-63
2023/01/05 07:43:52;;;;;;;35.45;5.75;;;9.10;99.90;;;;;;5058764;28;20110;-63
2023/01/05 07:46:18;;;;;;;28.73;5.07;;;9.10;99.90;;;;;;5058823;28;20041;-62
2023/01/05 07:48:44;;;;;;;28.70;5.60;;;9.10;99.90;;;;;;5058769;28;20048;-63
2023/01/05 07:51:10;;;;;;;34.90;6.03;;;9.10;99.90;;;;;;5056946;28;20059;-63
2023/01/05 07:53:37;;;;;;;32.30;5.47;;;9.10;99.90;;;;;;5045158;28;20045;-63
2023/01/05 07:56:04;;;;;;;32.85;4.85;;;9.10;99.90;;;;;;5056845;28;20053;-63
2023/01/05 07:58:30;;;;;;;31.65;5.38;;;9.10;99.90;;;;;;5056886;28;20048;-63
2023/01/05 08:00:56;;;;;;;27.15;4.78;;;9.10;99.90;;;;;;5055930;28;20105;-63
2023/01/05 08:03:22;;;;;;;23.88;4.30;;;9.10;99.90;;;;;;5056034;28;20044;-63
2023/01/05 08:05:48;;;;;;;28.60;4.70;;;9.10;99.90;;;;;;5038158;28;20102;-63
2023/01/05 08:08:15;;;;;;;27.98;4.95;;;9.10;99.90;;;;;;5056315;28;20040;-63
2023/01/05 08:10:41;;;;;;;23.85;4.75;;;9.10;99.90;;;;;;5055323;28;20041;-63
2023/01/05 08:15:55;;;;;;;26.95;4.35;;;9.10;99.90;;;;;;5042330;28;20053;-63
2023/01/05 08:18:22;;;;;;;25.15;4.38;;;9.10;99.90;;;;;;5055706;28;20037;-63
2023/01/05 08:20:55;;;;;;;29.85;4.72;;;9.10;99.90;;;;;;5055197;28;20128;-63
2023/01/05 08:23:23;;;;;;;25.30;4.85;;;9.10;99.90;;;;;;5054124;28;20471;-63
2023/01/05 08:25:48;;;;;;;27.45;4.47;;;9.10;99.90;;;;;;5071485;28;20056;-63
2023/01/05 08:28:14;;;;;;;27.05;4.85;;;9.10;99.90;;;;;;5055773;28;20063;-63
2023/01/05 08:30:40;;;;;;;27.02;5.07;;;9.10;99.90;;;;;;5049721;28;20055;-63
2023/01/05 08:33:06;;;;;;;29.08;4.68;;;9.10;99.90;;;;;;5053360;28;20051;-63
2023/01/05 08:35:32;;;;;;;29.90;4.25;;;9.10;99.90;;;;;;5054908;28;20123;-63
2023/01/05 08:37:58;;;;;;;28.65;4.43;;;9.10;99.90;;;;;;5056393;28;20036;-63
2023/01/05 08:40:24;;;;;;;26.20;4.00;;;9.10;99.90;;;;;;5056678;28;20045;-63
2023/01/05 08:42:50;;;;;;;32.03;5.28;;;9.10;99.90;;;;;;5056284;28;20133;-63
2023/01/05 08:45:16;;;;;;;32.60;5.15;;;9.10;99.90;;;;;;5054807;28;20048;-63
2023/01/05 08:47:42;;;;;;;33.78;4.82;;;9.10;99.90;;;;;;5053905;28;20463;-63
2023/01/05 08:50:09;;;;;;;34.80;5.25;;;9.20;99.90;;;;;;5055181;28;20051;-63
2023/01/05 08:52:37;;;;;;;33.50;5.40;;;9.20;99.90;;;;;;5058025;28;20075;-63
2023/01/05 08:55:04;;;;;;;36.47;5.30;;;9.10;99.90;;;;;;5057527;28;20143;-63
2023/01/05 08:57:30;;;;;;;32.42;5.53;;;9.20;99.90;;;;;;5050604;28;20064;-63
2023/01/05 08:59:56;;;;;;;28.27;4.88;;;9.10;99.90;;;;;;5053524;28;20079;-63
2023/01/05 09:02:25;;;;;;;30.35;5.10;;;9.10;99.90;;;;;;5056145;28;20514;-63
2023/01/05 09:04:51;;;;;;;38.15;5.57;;;9.10;99.90;;;;;;5054167;28;20075;-63
2023/01/05 09:07:17;;;;;;;37.40;5.82;;;9.10;99.90;;;;;;5055685;28;20048;-63
2023/01/05 09:09:42;;;;;;;30.38;4.40;;;9.10;99.90;;;;;;5054124;28;20400;-63
2023/01/05 09:12:08;;;;;;;31.42;5.13;;;9.10;99.90;;;;;;5057802;28;20047;-63
2023/01/05 09:14:34;;;;;;;20.77;3.55;;;9.10;99.90;;;;;;5054731;28;20064;-63
2023/01/05 09:17:00;;;;;;;23.77;3.45;;;9.10;99.90;;;;;;5038096;28;20051;-63
2023/01/05 09:19:26;;;;;;;25.38;3.70;;;9.00;99.90;;;;;;5054446;28;20059;-63
2023/01/05 09:21:52;;;;;;;27.02;4.07;;;9.10;99.90;;;;;;5054680;28;20487;-63
2023/01/05 09:24:18;;;;;;;21.80;3.75;;;9.10;99.90;;;;;;5054663;28;20041;-63
2023/01/05 09:26:44;;;;;;;21.40;3.63;;;9.10;99.90;;;;;;5054106;28;20115;-63
2023/01/05 09:29:11;;;;;;;22.27;4.07;;;9.00;99.90;;;;;;5038945;28;20079;-63
2023/01/05 09:31:38;;;;;;;23.27;3.72;;;9.00;99.90;;;;;;5056225;28;20098;-63
2023/01/05 09:34:04;;;;;;;25.42;3.75;;;9.10;99.90;;;;;;5053458;28;20048;-63
2023/01/05 09:36:31;;;;;;;15.40;3.25;;;9.10;99.90;;;;;;5058786;28;20112;-63
2023/01/05 09:38:56;;;;;;;18.13;3.13;;;9.10;99.90;;;;;;5055978;28;20041;-63
2023/01/05 09:41:29;;;;;;;12.90;2.30;;;9.10;99.90;;;;;;5028491;28;20051;-63
2023/01/05 09:44:15;;;;;;;;;;;9.10;99.90;;;;;;5053638;28;20045;-63
2023/01/05 09:46:45;;;;;;;14.23;2.50;;;9.10;99.90;;;;;;5053081;28;19963;-63
2023/01/05 09:49:14;;;;;;;18.20;3.17;;;9.10;99.90;;;;;;5056472;28;20146;-63
2023/01/05 09:51:41;;;;;;;20.85;3.13;;;9.10;99.90;;;;;;5053938;28;20345;-63
2023/01/05 09:54:15;;;;;;;20.60;3.30;;;9.10;99.90;;;;;;5056328;28;20064;-63
2023/01/05 09:56:45;;;;;;;23.08;3.45;;;9.10;99.90;;;;;;5053761;28;20044;-63
2023/01/05 09:59:23;;;;;;;21.58;3.25;;;9.20;99.90;;;;;;5055446;28;20466;-63
2023/01/05 10:01:50;;;;;;;21.58;3.65;;;9.10;99.90;;;;;;5055090;28;20639;-63
2023/01/05 10:04:20;;;;;;;15.85;3.15;;;9.10;99.90;;;;;;5053233;28;20077;-63
2023/01/05 10:06:51;;;;;;;17.52;2.85;;;9.20;99.90;;;;;;5057089;28;20040;-63
2023/01/05 10:09:21;;;;;;;15.38;2.60;;;9.20;99.90;;;;;;5051692;28;20047;-63
2023/01/05 10:15:18;;;;;;;27.58;4.13;;;9.20;99.90;;;;;;5053154;28;20532;-63
2023/01/05 10:17:44;;;;;;;;;;;9.20;99.90;;;;;;5054029;28;20046;-63
2023/01/05 10:20:15;;;;;;;18.88;3.17;;;9.20;99.90;;;;;;5024269;28;20267;-63
2023/01/05 10:22:59;;;;;;;31.30;4.63;;;9.20;99.90;;;;;;5054800;28;20056;-63
2023/01/05 10:25:51;;;;;;;24.90;3.65;;;9.20;99.90;;;;;;5054284;28;20037;-63
2023/01/05 10:28:22;;;;;;;24.15;4.15;;;9.20;99.90;;;;;;5053839;28;20060;-63
2023/01/05 10:31:00;;;;;;;27.92;4.68;;;9.20;99.90;;;;;;5051067;28;20402;-63
2023/01/05 10:33:32;;;;;;;26.08;3.33;;;9.20;99.90;;;;;;5053382;28;20041;-63
2023/01/05 10:36:21;;;;;;;23.17;3.50;;;9.20;99.90;;;;;;5061563;28;20064;-63
2023/01/05 10:39:05;;;;;;;28.05;4.25;;;9.20;99.90;;;;;;5054261;28;20294;-63
2023/01/05 10:42:06;;;;;;;18.73;3.45;;;9.20;99.90;;;;;;5053526;28;20062;-63
2023/01/05 10:44:53;;;;;;;19.98;3.13;;;9.20;99.90;;;;;;5051925;28;20055;-63
2023/01/05 10:47:21;;;;;;;16.48;3.20;;;9.20;99.90;;;;;;5051287;28;20395;-63
2023/01/05 10:49:47;;;;;;;17.08;2.95;;;9.30;99.90;;;;;;5052232;28;20047;-63
2023/01/05 10:52:19;;;;;;;12.05;2.30;;;9.30;99.90;;;;;;5055196;28;20083;-63
2023/01/05 10:54:53;;;;;;;11.93;2.35;;;9.30;99.90;;;;;;5058543;28;20041;-63
2023/01/05 10:57:27;;;;;;;18.02;2.70;;;9.40;99.90;;;;;;5049507;28;20063;-63
2023/01/05 10:59:58;;;;;;;8.25;2.20;;;9.40;99.90;;;;;;5054248;28;20410;-63
2023/01/05 11:02:27;;;;;;;14.95;1.80;;;9.40;99.90;;;;;;5052127;28;20461;-63
2023/01/05 11:05:01;;;;;;;11.32;1.98;;;9.50;99.90;;;;;;5053398;28;20482;-63
2023/01/05 11:07:27;;;;;;;15.82;2.75;;;9.50;99.90;;;;;;5053422;28;20128;-63
2023/01/05 11:09:53;;;;;;;10.65;2.28;;;9.50;99.90;;;;;;5052339;28;20159;-63
2023/01/05 11:12:22;;;;;;;9.38;2.13;;;9.50;99.90;;;;;;5039622;28;20052;-63
2023/01/05 11:14:57;;;;;;;13.82;2.80;;;9.50;99.90;;;;;;5051379;28;20055;-63
2023/01/05 11:17:26;;;;;;;17.45;2.63;;;9.60;99.90;;;;;;5051814;28;20045;-63
2023/01/05 11:19:54;;;;;;;17.20;2.90;;;9.60;99.90;;;;;;5034829;28;20037;-63
2023/01/05 11:22:35;;;;;;;14.32;2.92;;;9.60;99.90;;;;;;5053566;28;20048;-63
2023/01/05 11:25:16;;;;;;;13.95;3.05;;;9.60;99.90;;;;;;5053382;28;20036;-63
2023/01/05 11:27:42;;;;;;;18.98;3.20;;;9.60;99.90;;;;;;5054307;28;20045;-63
2023/01/05 11:30:14;;;;;;;15.80;3.30;;;9.60;99.90;;;;;;5054023;28;20044;-63
2023/01/05 11:32:41;;;;;;;18.23;3.33;;;9.70;99.90;;;;;;5054893;28;20402;-63
2023/01/05 11:35:24;;;;;;;21.58;3.22;;;9.60;99.90;;;;;;5053632;28;20045;-63
2023/01/05 11:37:50;;;;;;;;;;;9.60;99.90;;;;;;5055023;28;20049;-63
2023/01/05 11:40:18;;;;;;;22.77;3.20;;;9.60;99.90;;;;;;5054133;28;19917;-63
2023/01/05 11:42:44;;;;;;;21.58;4.05;;;9.60;99.90;;;;;;5051656;28;20087;-63
2023/01/05 11:45:28;;;;;;;20.63;4.00;;;9.60;99.90;;;;;;5052513;28;20182;-63
2023/01/05 11:47:56;;;;;;;25.73;3.75;;;9.60;99.90;;;;;;5052907;28;20053;-63
2023/01/05 11:50:29;;;;;;;22.38;3.25;;;9.60;99.90;;;;;;5038962;28;20041;-63
2023/01/05 11:52:58;;;;;;;20.38;3.42;;;9.60;99.90;;;;;;5053367;28;20044;-63
2023/01/05 11:55:28;;;;;;;25.48;3.38;;;9.60;99.90;;;;;;5054624;28;20454;-63
2023/01/05 11:58:13;;;;;;;18.10;3.58;;;9.60;99.90;;;;;;5057426;28;20124;-63
2023/01/05 12:00:47;;;;;;;27.05;3.65;;;9.60;99.90;;;;;;5052542;28;20127;-63
2023/01/05 12:03:30;;;;;;;18.00;3.70;;;9.60;99.90;;;;;;5037574;28;20067;-63
2023/01/05 12:05:58;;;;;;;20.90;3.92;;;9.60;99.90;;;;;;5052454;28;20048;-63
2023/01/05 12:08:35;;;;;;;21.63;3.67;;;9.60;99.90;;;;;;5054198;28;20044;-63
2023/01/05 12:11:15;;;;;;;19.45;4.05;;;9.70;99.90;;;;;;5051782;28;20056;-63
2023/01/05 12:14:03;;;;;;;21.88;4.40;;;9.80;99.90;;;;;;5053625;28;20048;-63
2023/01/05 12:16:53;;;;;;;16.13;3.13;;;9.80;99.90;;;;;;5055588;28;20043;-63
2023/01/05 12:19:46;;;;;;;18.40;3.22;;;9.80;99.90;;;;;;5059749;28;20094;-63
2023/01/05 12:22:12;;;;;;;13.38;2.90;;;9.90;99.90;;;;;;5056322;28;20124;-63
2023/01/05 12:25:10;;;;;;;15.68;3.13;;;9.90;99.90;;;;;;5055141;28;20127;-63
2023/01/05 12:28:37;;;;;;;18.95;3.45;;;9.90;99.90;;;;;;5058039;28;20048;-63
2023/01/05 12:31:11;;;;;;;15.90;2.53;;;9.90;99.90;;;;;;5044978;28;20146;-63
2023/01/05 12:34:18;;;;;;;14.73;2.47;;;10.00;99.90;;;;;;5038678;28;20072;-63
2023/01/05 12:37:18;;;;;;;14.05;2.85;;;10.00;99.90;;;;;;5055837;28;20055;-63
2023/01/05 12:40:14;;;;;;;13.13;2.50;;;9.90;99.90;;;;;;5049817;28;20164;-63
2023/01/05 12:43:08;;;;;;;25.75;3.28;;;9.90;99.90;;;;;;5058159;28;20403;-63
2023/01/05 12:46:00;;;;;;;15.10;2.45;;;9.90;99.90;;;;;;5054826;28;20086;-63
2023/01/05 12:48:41;;;;;;;15.15;3.28;;;9.90;99.90;;;;;;5056860;28;20095;-63
2023/01/05 12:51:35;;;;;;;13.95;3.50;;;9.90;99.90;;;;;;5061257;28;20037;-63
2023/01/05 12:54:03;;;;;;;17.42;2.90;;;9.90;99.90;;;;;;5055442;28;20033;-63
2023/01/05 12:56:32;;;;;;;17.98;2.83;;;9.80;99.90;;;;;;5054461;28;20311;-63
2023/01/05 12:59:19;;;;;;;15.80;3.00;;;9.80;99.90;;;;;;5050075;28;20087;-63
2023/01/05 13:01:55;;;;;;;22.20;3.65;;;9.80;99.90;;;;;;5055942;28;20044;-63
2023/01/05 13:04:47;;;;;;;16.60;2.67;;;9.80;99.90;;;;;;5057274;28;20486;-63
2023/01/05 13:07:31;;;;;;;20.42;3.97;;;9.80;99.90;;;;;;5055621;28;20390;-63
2023/01/05 13:10:05;;;;;;;17.75;3.47;;;9.80;99.90;;;;;;5054992;28;20131;-63
2023/01/05 13:12:34;;;;;;;18.95;3.28;;;9.80;99.90;;;;;;5056985;28;20059;-63
2023/01/05 13:15:04;;;;;;;18.38;3.20;;;9.80;99.90;;;;;;5054684;28;20173;-63
2023/01/05 13:17:34;;;;;;;17.15;2.88;;;9.90;99.90;;;;;;5045941;28;20044;-63
2023/01/05 13:20:26;;;;;;;20.05;3.67;;;9.90;99.90;;;;;;5056855;28;20168;-63
2023/01/05 13:23:01;;;;;;;17.55;3.47;;;9.90;99.90;;;;;;5038164;28;20048;-62
2023/01/05 13:25:31;;;;;;;12.63;2.88;;;10.00;99.90;;;;;;5056482;28;20033;-63
2023/01/05 13:27:57;;;;;;;22.33;3.63;;;10.00;99.90;;;;;;5057078;28;20048;-63
2023/01/05 13:30:31;;;;;;;23.85;3.53;;;10.00;99.90;;;;;;5053510;28;20047;-63
2023/01/05 13:33:23;;;;;;;20.05;3.45;;;10.00;99.90;;;;;;5055041;28;20115;-65
2023/01/05 13:36:19;;;;;;;21.98;3.58;;;9.90;99.90;;;;;;5054491;28;20459;-63
2023/01/05 13:39:12;;;;;;;15.13;3.25;;;9.90;99.90;;;;;;5061547;28;20048;-63
2023/01/05 13:41:51;;;;;;;21.88;3.65;;;9.90;99.90;;;;;;5054924;28;20048;-63
2023/01/05 13:44:58;;;;;;;21.60;3.70;;;9.80;99.90;;;;;;5062008;28;20041;-63